Aviation Digital Data Service (ADDS)

Output produced by METARs form (0548 UTC 19 March 2019)
found at http://www.aviationweather.gov/metar/data/
 
Forecast for: RPLC (ANGELES/PAMPANGA, PH)
Text: TAF RPLC 190500Z 1906/2012 04006KT 9999 FEW020 BKN300 TX34/1906Z TN23/1922Z
Forecast period: 0600 UTC 19 March 2019 to 1200 UTC 20 March 2019
Forecast type: FROM: standard forecast or significant change
Winds: from the NE (40 degrees) at 7 MPH (6 knots; 3.1 m/s)
Visibility: 6 or more miles 10+ km)
Ceiling: 30000 feet AGL
Clouds: few clouds at 2000 feet AGL
broken clouds at 30000 feet AGL
Weather: no significant weather forecast for this period
Text: TEMPO 1906/1912 02008KT SCT020 BKN300
Forecast period: 0600 to 1200 UTC 19 March 2019
Forecast type: TEMPORARY: The following changes expected for less than half the time period
Winds: from the NNE (20 degrees) at 9 MPH (8 knots; 4.1 m/s)
Visibility: missing
Ceiling: 30000 feet AGL
Clouds: scattered clouds at 2000 feet AGL
broken clouds at 30000 feet AGL
Weather: no significant weather forecast for this period